createdAt,value
2023-03-28T00:04:41.865Z,76.33
2023-03-28T00:09:44.856Z,76.93
2023-03-28T00:14:48.072Z,77.26
2023-03-28T00:19:53.810Z,76.84
2023-03-28T00:24:59.800Z,76.88
2023-03-28T00:30:05.444Z,76.96
2023-03-28T00:35:09.975Z,76.95
2023-03-28T00:40:14.236Z,76.62
2023-03-28T00:45:17.511Z,76.87
2023-03-28T00:50:31.129Z,75.40
2023-03-28T00:55:42.756Z,76.25
2023-03-28T01:00:49.474Z,75.63
2023-03-28T01:05:52.778Z,76.08
2023-03-28T01:10:59.408Z,75.36
2023-03-28T01:16:04.253Z,75.27
2023-03-28T01:21:29.045Z,74.98
2023-03-28T01:27:16.245Z,75.00
2023-03-28T01:32:43.722Z,74.90
2023-03-28T01:38:15.161Z,75.33
2023-03-28T01:43:31.661Z,75.20
2023-03-28T01:48:37.568Z,75.22
2023-03-28T01:54:01.528Z,75.06
2023-03-28T01:59:21.367Z,75.35
2023-03-28T02:04:46.862Z,75.30
2023-03-28T02:09:52.183Z,75.17
2023-03-28T02:15:12.165Z,75.28
2023-03-28T02:20:53.315Z,75.52
2023-03-28T02:26:26.099Z,75.43
2023-03-28T02:31:38.967Z,75.74
2023-03-28T02:37:24.525Z,75.68
2023-03-28T02:42:36.508Z,75.54
2023-03-28T02:47:53.149Z,76.00
2023-03-28T02:53:22.498Z,75.59
2023-03-28T02:58:52.672Z,75.96
2023-03-28T03:03:58.210Z,75.55
2023-03-28T03:09:01.887Z,76.13
2023-03-28T03:14:05.128Z,75.65
2023-03-28T03:19:09.060Z,75.26
2023-03-28T03:24:14.776Z,75.27
2023-03-28T03:29:22.340Z,74.93
2023-03-28T03:34:26.559Z,74.58
2023-03-28T03:39:33.404Z,74.51
2023-03-28T03:44:36.569Z,74.80
2023-03-28T03:49:39.949Z,73.82
2023-03-28T03:54:44.064Z,74.35
2023-03-28T03:59:48.926Z,74.12
2023-03-28T04:04:54.672Z,74.30
2023-03-28T04:10:01.200Z,73.78
2023-03-28T04:15:10.145Z,74.63
2023-03-28T04:20:14.182Z,74.26
2023-03-28T04:25:41.967Z,74.23
2023-03-28T04:30:58.396Z,74.29
2023-03-28T04:36:22.876Z,74.00
2023-03-28T04:41:34.810Z,73.55
2023-03-28T04:46:56.867Z,73.76
2023-03-28T04:52:00.119Z,73.77
2023-03-28T04:57:05.269Z,73.04
2023-03-28T05:02:16.420Z,73.78
2023-03-28T05:07:26.650Z,72.98
2023-03-28T05:12:31.023Z,71.47
2023-03-28T05:17:41.259Z,72.99
2023-03-28T05:22:57.463Z,72.21
2023-03-28T05:28:01.716Z,72.30
2023-03-28T05:33:05.835Z,72.53
2023-03-28T05:38:09.409Z,72.63
2023-03-28T05:43:13.026Z,71.83
2023-03-28T05:48:16.821Z,71.67
2023-03-28T05:53:20.557Z,72.16
2023-03-28T05:58:23.611Z,73.28
2023-03-28T06:03:28.334Z,73.74
2023-03-28T06:08:31.712Z,73.23
2023-03-28T06:13:35.040Z,72.57
2023-03-28T06:18:43.576Z,71.93
2023-03-28T06:23:46.797Z,72.07
2023-03-28T06:29:01.826Z,71.32
2023-03-28T06:34:18.044Z,69.81
2023-03-28T06:39:28.866Z,70.73
2023-03-28T06:44:34.075Z,70.75
2023-03-28T06:50:15.831Z,69.60
2023-03-28T06:55:36.048Z,70.14
2023-03-28T07:00:39.171Z,70.53
2023-03-28T07:06:07.122Z,69.50
2023-03-28T07:11:10.778Z,69.56
2023-03-28T07:16:17.203Z,69.50
2023-03-28T07:21:20.705Z,69.76
2023-03-28T07:26:23.859Z,68.97
2023-03-28T07:31:27.542Z,68.06
2023-03-28T07:36:30.812Z,68.56
2023-03-28T07:41:42.972Z,68.93
2023-03-28T07:46:47.280Z,68.19
2023-03-28T07:51:53.003Z,66.65
2023-03-28T07:56:56.480Z,66.41
2023-03-28T08:02:21.289Z,66.56
2023-03-28T08:07:26.015Z,66.58
2023-03-28T08:12:30.540Z,66.08
2023-03-28T08:17:34.072Z,66.00
2023-03-28T08:22:37.530Z,66.09
2023-03-28T08:28:07.018Z,66.29
2023-03-28T08:33:11.059Z,65.76
2023-03-28T08:38:14.346Z,65.58
2023-03-28T08:43:36.100Z,65.37
2023-03-28T08:48:45.487Z,64.73
2023-03-28T08:54:15.676Z,63.93
2023-03-28T08:59:32.572Z,63.55
2023-03-28T09:04:37.480Z,63.75
2023-03-28T09:10:13.090Z,63.58
2023-03-28T09:15:46.392Z,63.91
2023-03-28T09:21:14.081Z,63.32
2023-03-28T09:26:34.372Z,62.53
2023-03-28T09:31:49.092Z,61.40
2023-03-28T09:36:59.484Z,60.43
2023-03-28T09:42:14.280Z,59.09
2023-03-28T09:47:23.053Z,58.83
2023-03-28T09:52:41.909Z,58.55
2023-03-28T09:58:18.680Z,57.96
2023-03-28T10:03:54.669Z,58.21
2023-03-28T10:09:20.470Z,57.04
2023-03-28T10:14:46.721Z,56.50
2023-03-28T10:20:23.933Z,58.62
2023-03-28T10:25:40.413Z,57.62
2023-03-28T10:30:45.352Z,56.63
2023-03-28T10:35:57.800Z,56.74
2023-03-28T10:41:25.389Z,57.10
2023-03-28T10:46:51.122Z,57.25
2023-03-28T10:52:01.538Z,56.38
2023-03-28T10:57:20.492Z,56.47
2023-03-28T11:03:00.866Z,53.92
2023-03-28T11:08:28.240Z,54.22
2023-03-28T11:14:05.042Z,54.26
2023-03-28T11:19:11.628Z,53.63
2023-03-28T11:24:43.317Z,54.15
2023-03-28T11:29:57.337Z,54.12
2023-03-28T11:35:22.012Z,54.40
2023-03-28T11:40:36.843Z,54.16
2023-03-28T11:45:53.561Z,53.49
2023-03-28T11:51:41.650Z,53.44
2023-03-28T11:56:57.076Z,52.55
2023-03-28T12:02:16.112Z,52.78
2023-03-28T12:07:24.798Z,52.36
2023-03-28T12:12:57.444Z,52.90
2023-03-28T12:18:11.381Z,53.16
2023-03-28T12:23:42.047Z,52.83
2023-03-28T12:29:22.600Z,52.41
2023-03-28T12:34:42.036Z,51.84
2023-03-28T12:40:23.979Z,51.54
2023-03-28T12:45:33.773Z,51.18
2023-03-28T12:50:52.483Z,50.86
2023-03-28T12:55:56.238Z,51.26
2023-03-28T13:01:08.096Z,51.26
2023-03-28T13:06:48.504Z,50.94
2023-03-28T13:12:07.008Z,51.27
2023-03-28T13:17:23.737Z,51.36
2023-03-28T13:22:33.119Z,51.85
2023-03-28T13:27:36.673Z,51.96
2023-03-28T13:32:46.942Z,51.87
2023-03-28T13:37:50.131Z,52.32
2023-03-28T13:43:00.168Z,52.70
2023-03-28T13:48:13.220Z,52.51
2023-03-28T13:53:16.901Z,52.82
2023-03-28T13:58:19.944Z,52.18
2023-03-28T14:03:26.245Z,52.47
2023-03-28T14:08:30.236Z,52.09
2023-03-28T14:13:33.866Z,52.71
2023-03-28T14:18:49.597Z,53.16
2023-03-28T14:24:06.298Z,52.68
2023-03-28T14:29:14.488Z,53.32
2023-03-28T14:34:35.557Z,52.96
2023-03-28T14:39:41.866Z,54.00
2023-03-28T14:44:51.905Z,53.98
2023-03-28T14:49:56.068Z,54.07
2023-03-28T14:54:59.812Z,54.90
2023-03-28T15:00:12.701Z,54.75
2023-03-28T15:05:23.512Z,54.96
2023-03-28T15:10:27.948Z,55.20
2023-03-28T15:15:37.711Z,54.88
2023-03-28T15:20:45.543Z,55.01
2023-03-28T15:25:48.633Z,55.80
2023-03-28T15:30:51.882Z,55.09
2023-03-28T15:36:34.944Z,55.59
2023-03-28T15:41:42.686Z,55.52
2023-03-28T15:46:46.774Z,55.73
2023-03-28T15:51:56.954Z,56.09
2023-03-28T15:57:02.699Z,55.77
2023-03-28T16:02:30.138Z,55.89
2023-03-28T16:07:37.370Z,56.77
2023-03-28T16:12:41.478Z,56.36
2023-03-28T16:18:08.557Z,56.72
2023-03-28T16:23:21.012Z,56.67
2023-03-28T16:28:23.965Z,56.68
2023-03-28T16:33:26.968Z,56.47
2023-03-28T16:38:30.667Z,57.28
2023-03-28T16:43:33.653Z,57.13
2023-03-28T16:48:37.111Z,57.15
2023-03-28T16:53:41.009Z,57.07
2023-03-28T16:58:44.018Z,57.49
2023-03-28T17:03:47.892Z,57.39
2023-03-28T17:08:53.479Z,57.31
2023-03-28T17:13:57.610Z,57.89
2023-03-28T17:19:00.787Z,57.58
2023-03-28T17:24:05.118Z,57.60
2023-03-28T17:29:10.225Z,58.14
2023-03-28T17:34:13.852Z,58.38
2023-03-28T17:39:16.941Z,58.58
2023-03-28T17:44:20.053Z,58.44
2023-03-28T17:49:23.292Z,58.46
2023-03-28T17:54:26.606Z,58.74
2023-03-28T17:59:29.720Z,58.87
2023-03-28T18:04:33.231Z,58.43
2023-03-28T18:09:55.374Z,58.57
2023-03-28T18:15:00.947Z,58.49
2023-03-28T18:20:06.801Z,57.88
2023-03-28T18:25:10.408Z,58.35
2023-03-28T18:30:14.548Z,58.51
2023-03-28T18:35:17.690Z,58.62
2023-03-28T18:40:20.741Z,58.54
2023-03-28T18:45:23.909Z,58.34
2023-03-28T18:50:27.540Z,58.48
2023-03-28T18:55:31.050Z,59.01
2023-03-28T19:00:34.062Z,58.46
2023-03-28T19:05:37.543Z,58.85
2023-03-28T19:10:46.510Z,58.99
2023-03-28T19:16:04.712Z,58.22
2023-03-28T19:21:09.249Z,59.10
2023-03-28T19:26:15.864Z,58.94
2023-03-28T19:31:20.563Z,59.24
2023-03-28T19:36:23.931Z,59.40
2023-03-28T19:41:27.708Z,59.13
2023-03-28T19:46:33.202Z,59.29
2023-03-28T19:51:37.731Z,60.00
2023-03-28T19:56:40.929Z,60.02
2023-03-28T20:01:44.113Z,60.56
2023-03-28T20:06:49.167Z,60.82
2023-03-28T20:11:53.162Z,61.02
2023-03-28T20:16:56.228Z,61.02
2023-03-28T20:21:59.229Z,61.20
2023-03-28T20:27:02.663Z,61.06
2023-03-28T20:32:07.455Z,61.62
2023-03-28T20:37:14.407Z,61.74
2023-03-28T20:42:18.515Z,62.23
2023-03-28T20:47:22.439Z,63.00
2023-03-28T20:52:25.931Z,63.68
2023-03-28T20:57:30.519Z,64.02
2023-03-28T21:02:34.540Z,64.40
2023-03-28T21:07:37.545Z,64.55
2023-03-28T21:12:40.905Z,64.88
2023-03-28T21:17:44.163Z,65.14
2023-03-28T21:22:47.218Z,64.49
2023-03-28T21:27:50.204Z,64.94
2023-03-28T21:32:54.818Z,64.79
2023-03-28T21:37:57.921Z,65.47
2023-03-28T21:43:01.150Z,65.27
2023-03-28T21:48:05.028Z,65.67
2023-03-28T21:53:10.065Z,66.31
2023-03-28T21:58:13.505Z,66.14
2023-03-28T22:03:16.767Z,67.01
2023-03-28T22:08:21.038Z,67.41
2023-03-28T22:13:24.174Z,67.08
2023-03-28T22:18:28.126Z,67.61
2023-03-28T22:23:31.293Z,67.90
2023-03-28T22:28:34.403Z,68.10
2023-03-28T22:33:37.469Z,68.96
2023-03-28T22:38:40.986Z,69.05
2023-03-28T22:43:44.364Z,68.52
2023-03-28T22:48:54.382Z,69.37
2023-03-28T22:54:02.081Z,69.34
2023-03-28T22:59:05.232Z,69.66
2023-03-28T23:04:08.402Z,69.37
2023-03-28T23:09:13.304Z,69.09
2023-03-28T23:14:16.714Z,69.71
2023-03-28T23:19:19.868Z,69.43
2023-03-28T23:24:23.826Z,70.54
2023-03-28T23:29:26.908Z,70.27
2023-03-28T23:34:29.883Z,70.30
2023-03-28T23:39:33.468Z,70.50
2023-03-28T23:44:38.041Z,70.06
2023-03-28T23:49:42.767Z,69.90
2023-03-28T23:54:45.805Z,70.57
2023-03-28T23:59:48.862Z,70.30
